sensor_id;sensor_type;location;lat;lon;timestamp;P1;durP1;ratioP1;P2;durP2;ratioP2
12493;SDS011;8260;51.422;6.786;2023-05-10T00:00:44;14.10;;;10.63;;
12493;SDS011;8260;51.422;6.786;2023-05-10T00:03:13;15.10;;;11.63;;
12493;SDS011;8260;51.422;6.786;2023-05-10T00:05:42;16.13;;;11.57;;
12493;SDS011;8260;51.422;6.786;2023-05-10T00:08:10;13.98;;;10.98;;
12493;SDS011;8260;51.422;6.786;2023-05-10T00:10:39;15.20;;;11.30;;
12493;SDS011;8260;51.422;6.786;2023-05-10T00:13:09;16.27;;;11.38;;
12493;SDS011;8260;51.422;6.786;2023-05-10T00:15:38;15.48;;;11.30;;
12493;SDS011;8260;51.422;6.786;2023-05-10T00:18:06;15.65;;;11.85;;
12493;SDS011;8260;51.422;6.786;2023-05-10T00:20:35;16.33;;;10.93;;
12493;SDS011;8260;51.422;6.786;2023-05-10T00:23:04;15.98;;;12.40;;
12493;SDS011;8260;51.422;6.786;2023-05-10T00:25:32;15.93;;;11.65;;
12493;SDS011;8260;51.422;6.786;2023-05-10T00:28:01;14.02;;;11.05;;
12493;SDS011;8260;51.422;6.786;2023-05-10T00:30:31;18.23;;;12.10;;
12493;SDS011;8260;51.422;6.786;2023-05-10T00:32:59;15.55;;;11.38;;
12493;SDS011;8260;51.422;6.786;2023-05-10T00:35:29;14.73;;;10.88;;
12493;SDS011;8260;51.422;6.786;2023-05-10T00:37:58;15.00;;;11.32;;
12493;SDS011;8260;51.422;6.786;2023-05-10T00:40:26;14.95;;;11.02;;
12493;SDS011;8260;51.422;6.786;2023-05-10T00:42:57;15.82;;;10.77;;
12493;SDS011;8260;51.422;6.786;2023-05-10T00:45:26;17.40;;;10.75;;
12493;SDS011;8260;51.422;6.786;2023-05-10T00:47:56;17.38;;;11.93;;
12493;SDS011;8260;51.422;6.786;2023-05-10T00:50:26;17.08;;;11.93;;
12493;SDS011;8260;51.422;6.786;2023-05-10T00:52:55;18.85;;;12.43;;
12493;SDS011;8260;51.422;6.786;2023-05-10T00:55:24;16.95;;;11.25;;
12493;SDS011;8260;51.422;6.786;2023-05-10T00:57:52;17.15;;;11.65;;
12493;SDS011;8260;51.422;6.786;2023-05-10T01:00:21;17.17;;;11.60;;
12493;SDS011;8260;51.422;6.786;2023-05-10T01:02:50;16.75;;;12.82;;
12493;SDS011;8260;51.422;6.786;2023-05-10T01:05:20;18.05;;;12.48;;
12493;SDS011;8260;51.422;6.786;2023-05-10T01:07:49;17.42;;;12.80;;
12493;SDS011;8260;51.422;6.786;2023-05-10T01:10:18;18.77;;;13.35;;
12493;SDS011;8260;51.422;6.786;2023-05-10T01:12:46;18.70;;;13.10;;
12493;SDS011;8260;51.422;6.786;2023-05-10T01:15:15;18.55;;;13.45;;
12493;SDS011;8260;51.422;6.786;2023-05-10T01:17:44;16.83;;;12.48;;
12493;SDS011;8260;51.422;6.786;2023-05-10T01:20:13;18.92;;;12.82;;
12493;SDS011;8260;51.422;6.786;2023-05-10T01:25:32;18.17;;;12.77;;
12493;SDS011;8260;51.422;6.786;2023-05-10T01:28:18;17.63;;;13.48;;
12493;SDS011;8260;51.422;6.786;2023-05-10T01:31:03;18.17;;;13.13;;
12493;SDS011;8260;51.422;6.786;2023-05-10T01:33:37;19.45;;;12.30;;
12493;SDS011;8260;51.422;6.786;2023-05-10T01:36:08;17.77;;;13.10;;
12493;SDS011;8260;51.422;6.786;2023-05-10T01:38:41;19.25;;;12.93;;
12493;SDS011;8260;51.422;6.786;2023-05-10T01:41:13;18.25;;;13.35;;
12493;SDS011;8260;51.422;6.786;2023-05-10T01:43:45;21.15;;;13.50;;
12493;SDS011;8260;51.422;6.786;2023-05-10T01:46:16;18.45;;;13.52;;
12493;SDS011;8260;51.422;6.786;2023-05-10T01:48:48;19.25;;;13.55;;
12493;SDS011;8260;51.422;6.786;2023-05-10T01:51:21;19.30;;;14.38;;
12493;SDS011;8260;51.422;6.786;2023-05-10T01:53:51;20.15;;;14.32;;
12493;SDS011;8260;51.422;6.786;2023-05-10T01:56:20;20.00;;;13.85;;
12493;SDS011;8260;51.422;6.786;2023-05-10T01:58:51;15.55;;;12.82;;
12493;SDS011;8260;51.422;6.786;2023-05-10T02:01:21;18.48;;;12.57;;
12493;SDS011;8260;51.422;6.786;2023-05-10T02:03:51;16.35;;;11.90;;
12493;SDS011;8260;51.422;6.786;2023-05-10T02:06:20;17.23;;;12.82;;
12493;SDS011;8260;51.422;6.786;2023-05-10T02:08:50;19.48;;;12.52;;
12493;SDS011;8260;51.422;6.786;2023-05-10T02:11:20;17.27;;;13.00;;
12493;SDS011;8260;51.422;6.786;2023-05-10T02:13:49;19.13;;;14.45;;
12493;SDS011;8260;51.422;6.786;2023-05-10T02:16:18;19.45;;;13.63;;
12493;SDS011;8260;51.422;6.786;2023-05-10T02:18:49;19.10;;;13.90;;
12493;SDS011;8260;51.422;6.786;2023-05-10T02:21:20;16.13;;;12.30;;
12493;SDS011;8260;51.422;6.786;2023-05-10T02:23:50;18.40;;;13.95;;
12493;SDS011;8260;51.422;6.786;2023-05-10T02:26:20;18.40;;;14.15;;
12493;SDS011;8260;51.422;6.786;2023-05-10T02:28:49;18.67;;;13.80;;
12493;SDS011;8260;51.422;6.786;2023-05-10T02:31:19;17.92;;;14.05;;
12493;SDS011;8260;51.422;6.786;2023-05-10T02:33:48;14.85;;;12.18;;
12493;SDS011;8260;51.422;6.786;2023-05-10T02:36:17;20.02;;;14.63;;
12493;SDS011;8260;51.422;6.786;2023-05-10T02:38:49;17.67;;;14.25;;
12493;SDS011;8260;51.422;6.786;2023-05-10T02:41:20;19.58;;;14.55;;
12493;SDS011;8260;51.422;6.786;2023-05-10T02:43:50;19.17;;;13.43;;
12493;SDS011;8260;51.422;6.786;2023-05-10T02:46:19;17.85;;;13.48;;
12493;SDS011;8260;51.422;6.786;2023-05-10T02:48:47;17.13;;;12.93;;
12493;SDS011;8260;51.422;6.786;2023-05-10T02:51:16;17.67;;;13.05;;
12493;SDS011;8260;51.422;6.786;2023-05-10T02:53:46;19.95;;;14.27;;
12493;SDS011;8260;51.422;6.786;2023-05-10T02:56:20;21.98;;;14.88;;
12493;SDS011;8260;51.422;6.786;2023-05-10T02:58:49;19.10;;;13.57;;
12493;SDS011;8260;51.422;6.786;2023-05-10T03:01:18;17.70;;;12.80;;
12493;SDS011;8260;51.422;6.786;2023-05-10T03:03:46;20.58;;;14.48;;
12493;SDS011;8260;51.422;6.786;2023-05-10T03:06:15;20.90;;;13.13;;
12493;SDS011;8260;51.422;6.786;2023-05-10T03:08:44;19.27;;;12.88;;
12493;SDS011;8260;51.422;6.786;2023-05-10T03:11:20;18.02;;;13.23;;
12493;SDS011;8260;51.422;6.786;2023-05-10T03:13:55;18.40;;;12.07;;
12493;SDS011;8260;51.422;6.786;2023-05-10T03:16:27;17.50;;;12.57;;
12493;SDS011;8260;51.422;6.786;2023-05-10T03:19:00;20.60;;;13.63;;
12493;SDS011;8260;51.422;6.786;2023-05-10T03:21:30;19.85;;;13.50;;
12493;SDS011;8260;51.422;6.786;2023-05-10T03:23:59;18.83;;;13.60;;
12493;SDS011;8260;51.422;6.786;2023-05-10T03:26:35;18.75;;;13.35;;
12493;SDS011;8260;51.422;6.786;2023-05-10T03:29:05;19.38;;;13.52;;
12493;SDS011;8260;51.422;6.786;2023-05-10T03:31:35;20.63;;;14.07;;
12493;SDS011;8260;51.422;6.786;2023-05-10T03:34:04;20.58;;;14.23;;
12493;SDS011;8260;51.422;6.786;2023-05-10T03:36:33;17.58;;;12.90;;
12493;SDS011;8260;51.422;6.786;2023-05-10T03:39:02;19.00;;;14.55;;
12493;SDS011;8260;51.422;6.786;2023-05-10T03:41:31;21.50;;;14.40;;
12493;SDS011;8260;51.422;6.786;2023-05-10T03:44:01;22.27;;;15.70;;
12493;SDS011;8260;51.422;6.786;2023-05-10T03:46:29;21.45;;;15.13;;
12493;SDS011;8260;51.422;6.786;2023-05-10T03:48:58;20.35;;;14.05;;
12493;SDS011;8260;51.422;6.786;2023-05-10T03:51:27;22.33;;;14.73;;
12493;SDS011;8260;51.422;6.786;2023-05-10T03:53:57;22.13;;;16.33;;
12493;SDS011;8260;51.422;6.786;2023-05-10T03:56:25;25.13;;;16.25;;
12493;SDS011;8260;51.422;6.786;2023-05-10T03:58:54;24.45;;;16.42;;
12493;SDS011;8260;51.422;6.786;2023-05-10T04:01:24;24.30;;;16.10;;
12493;SDS011;8260;51.422;6.786;2023-05-10T04:03:53;25.83;;;17.17;;
12493;SDS011;8260;51.422;6.786;2023-05-10T04:06:21;28.42;;;17.23;;
12493;SDS011;8260;51.422;6.786;2023-05-10T04:08:50;26.58;;;17.35;;
12493;SDS011;8260;51.422;6.786;2023-05-10T04:11:19;28.27;;;17.75;;
12493;SDS011;8260;51.422;6.786;2023-05-10T04:13:48;27.42;;;19.33;;
12493;SDS011;8260;51.422;6.786;2023-05-10T04:16:16;29.92;;;19.17;;
12493;SDS011;8260;51.422;6.786;2023-05-10T04:18:46;28.45;;;18.60;;
12493;SDS011;8260;51.422;6.786;2023-05-10T04:21:15;33.05;;;20.98;;
12493;SDS011;8260;51.422;6.786;2023-05-10T04:23:44;31.15;;;20.17;;
12493;SDS011;8260;51.422;6.786;2023-05-10T04:26:12;33.25;;;20.65;;
12493;SDS011;8260;51.422;6.786;2023-05-10T04:28:41;32.42;;;20.05;;
12493;SDS011;8260;51.422;6.786;2023-05-10T04:31:10;35.63;;;20.02;;
12493;SDS011;8260;51.422;6.786;2023-05-10T04:33:38;30.58;;;19.63;;
12493;SDS011;8260;51.422;6.786;2023-05-10T04:36:09;32.10;;;20.15;;
12493;SDS011;8260;51.422;6.786;2023-05-10T04:38:37;35.58;;;21.50;;
12493;SDS011;8260;51.422;6.786;2023-05-10T04:41:06;36.42;;;21.42;;
12493;SDS011;8260;51.422;6.786;2023-05-10T04:43:35;38.00;;;22.10;;
12493;SDS011;8260;51.422;6.786;2023-05-10T04:46:05;34.97;;;22.40;;
12493;SDS011;8260;51.422;6.786;2023-05-10T04:48:34;37.78;;;22.38;;
12493;SDS011;8260;51.422;6.786;2023-05-10T04:51:03;40.30;;;24.40;;
12493;SDS011;8260;51.422;6.786;2023-05-10T04:53:34;39.28;;;22.35;;
12493;SDS011;8260;51.422;6.786;2023-05-10T04:56:03;40.60;;;23.17;;
12493;SDS011;8260;51.422;6.786;2023-05-10T04:58:31;37.85;;;23.73;;
12493;SDS011;8260;51.422;6.786;2023-05-10T05:01:05;39.15;;;22.55;;
12493;SDS011;8260;51.422;6.786;2023-05-10T05:03:34;36.58;;;23.45;;
12493;SDS011;8260;51.422;6.786;2023-05-10T05:06:03;37.78;;;22.60;;
12493;SDS011;8260;51.422;6.786;2023-05-10T05:08:32;35.38;;;22.50;;
12493;SDS011;8260;51.422;6.786;2023-05-10T05:11:02;34.85;;;22.63;;
12493;SDS011;8260;51.422;6.786;2023-05-10T05:13:30;34.47;;;22.73;;
12493;SDS011;8260;51.422;6.786;2023-05-10T05:16:00;34.90;;;22.88;;
12493;SDS011;8260;51.422;6.786;2023-05-10T05:18:29;40.35;;;24.30;;
12493;SDS011;8260;51.422;6.786;2023-05-10T05:20:57;34.38;;;23.13;;
12493;SDS011;8260;51.422;6.786;2023-05-10T05:23:26;34.88;;;23.00;;
12493;SDS011;8260;51.422;6.786;2023-05-10T05:25:55;33.95;;;21.80;;
12493;SDS011;8260;51.422;6.786;2023-05-10T05:28:25;35.85;;;22.33;;
12493;SDS011;8260;51.422;6.786;2023-05-10T05:30:59;35.17;;;22.02;;
12493;SDS011;8260;51.422;6.786;2023-05-10T05:33:27;36.90;;;23.42;;
12493;SDS011;8260;51.422;6.786;2023-05-10T05:35:56;35.78;;;22.33;;
12493;SDS011;8260;51.422;6.786;2023-05-10T05:38:25;35.97;;;22.55;;
12493;SDS011;8260;51.422;6.786;2023-05-10T05:40:53;38.10;;;23.70;;
12493;SDS011;8260;51.422;6.786;2023-05-10T05:43:22;36.08;;;22.27;;
12493;SDS011;8260;51.422;6.786;2023-05-10T05:45:53;38.65;;;23.58;;
12493;SDS011;8260;51.422;6.786;2023-05-10T05:48:24;38.42;;;22.58;;
12493;SDS011;8260;51.422;6.786;2023-05-10T05:50:54;40.47;;;24.52;;
12493;SDS011;8260;51.422;6.786;2023-05-10T05:53:23;42.53;;;24.10;;
12493;SDS011;8260;51.422;6.786;2023-05-10T05:55:52;43.70;;;25.30;;
12493;SDS011;8260;51.422;6.786;2023-05-10T05:58:21;42.45;;;24.83;;
12493;SDS011;8260;51.422;6.786;2023-05-10T06:00:50;41.80;;;24.65;;
12493;SDS011;8260;51.422;6.786;2023-05-10T06:03:21;42.33;;;26.33;;
12493;SDS011;8260;51.422;6.786;2023-05-10T06:05:49;44.75;;;26.42;;
12493;SDS011;8260;51.422;6.786;2023-05-10T06:08:18;54.10;;;27.27;;
12493;SDS011;8260;51.422;6.786;2023-05-10T06:10:46;44.08;;;25.52;;
12493;SDS011;8260;51.422;6.786;2023-05-10T06:13:15;54.22;;;29.00;;
12493;SDS011;8260;51.422;6.786;2023-05-10T06:15:44;54.30;;;27.50;;
12493;SDS011;8260;51.422;6.786;2023-05-10T06:18:12;52.75;;;28.13;;
12493;SDS011;8260;51.422;6.786;2023-05-10T06:20:42;55.60;;;28.10;;
12493;SDS011;8260;51.422;6.786;2023-05-10T06:23:11;51.63;;;28.85;;
12493;SDS011;8260;51.422;6.786;2023-05-10T06:25:40;50.53;;;29.20;;
12493;SDS011;8260;51.422;6.786;2023-05-10T06:28:09;59.03;;;29.67;;
12493;SDS011;8260;51.422;6.786;2023-05-10T06:30:37;56.40;;;29.92;;
12493;SDS011;8260;51.422;6.786;2023-05-10T06:33:06;60.05;;;29.75;;
12493;SDS011;8260;51.422;6.786;2023-05-10T06:35:34;54.28;;;28.40;;
12493;SDS011;8260;51.422;6.786;2023-05-10T06:38:05;56.60;;;29.25;;
12493;SDS011;8260;51.422;6.786;2023-05-10T06:40:34;53.72;;;29.13;;
12493;SDS011;8260;51.422;6.786;2023-05-10T06:43:02;51.78;;;28.48;;
12493;SDS011;8260;51.422;6.786;2023-05-10T06:45:31;49.17;;;27.33;;
12493;SDS011;8260;51.422;6.786;2023-05-10T06:48:00;53.40;;;27.48;;
12493;SDS011;8260;51.422;6.786;2023-05-10T06:50:29;49.42;;;25.80;;
12493;SDS011;8260;51.422;6.786;2023-05-10T06:52:57;51.15;;;27.05;;
12493;SDS011;8260;51.422;6.786;2023-05-10T06:55:28;48.60;;;27.10;;
12493;SDS011;8260;51.422;6.786;2023-05-10T06:57:56;52.55;;;27.83;;
12493;SDS011;8260;51.422;6.786;2023-05-10T07:00:25;52.15;;;27.25;;
12493;SDS011;8260;51.422;6.786;2023-05-10T07:02:54;51.03;;;28.02;;
12493;SDS011;8260;51.422;6.786;2023-05-10T07:05:22;46.88;;;26.95;;
12493;SDS011;8260;51.422;6.786;2023-05-10T07:07:51;51.05;;;26.70;;
12493;SDS011;8260;51.422;6.786;2023-05-10T07:10:20;45.70;;;25.63;;
12493;SDS011;8260;51.422;6.786;2023-05-10T07:12:50;51.47;;;27.08;;
12493;SDS011;8260;51.422;6.786;2023-05-10T07:15:19;49.25;;;26.15;;
12493;SDS011;8260;51.422;6.786;2023-05-10T07:17:47;48.13;;;26.33;;
12493;SDS011;8260;51.422;6.786;2023-05-10T07:20:16;52.63;;;27.25;;
12493;SDS011;8260;51.422;6.786;2023-05-10T07:22:45;43.95;;;25.00;;
12493;SDS011;8260;51.422;6.786;2023-05-10T07:25:13;48.05;;;25.17;;
12493;SDS011;8260;51.422;6.786;2023-05-10T07:27:42;44.35;;;24.35;;
12493;SDS011;8260;51.422;6.786;2023-05-10T07:30:13;43.17;;;23.30;;
12493;SDS011;8260;51.422;6.786;2023-05-10T07:32:42;44.17;;;24.25;;
12493;SDS011;8260;51.422;6.786;2023-05-10T07:35:11;37.90;;;21.95;;
12493;SDS011;8260;51.422;6.786;2023-05-10T07:37:40;39.70;;;21.77;;
12493;SDS011;8260;51.422;6.786;2023-05-10T07:40:09;41.85;;;22.63;;
12493;SDS011;8260;51.422;6.786;2023-05-10T07:42:38;40.60;;;21.63;;
12493;SDS011;8260;51.422;6.786;2023-05-10T07:45:07;38.83;;;21.90;;
12493;SDS011;8260;51.422;6.786;2023-05-10T07:47:37;38.67;;;21.73;;
12493;SDS011;8260;51.422;6.786;2023-05-10T07:50:06;40.28;;;22.02;;
12493;SDS011;8260;51.422;6.786;2023-05-10T07:52:35;40.25;;;23.75;;
12493;SDS011;8260;51.422;6.786;2023-05-10T07:55:04;37.95;;;22.08;;
12493;SDS011;8260;51.422;6.786;2023-05-10T07:57:33;40.45;;;23.13;;
12493;SDS011;8260;51.422;6.786;2023-05-10T08:00:02;42.28;;;22.85;;
12493;SDS011;8260;51.422;6.786;2023-05-10T08:02:31;39.95;;;23.17;;
12493;SDS011;8260;51.422;6.786;2023-05-10T08:05:02;39.85;;;22.63;;
12493;SDS011;8260;51.422;6.786;2023-05-10T08:07:31;43.63;;;23.90;;
12493;SDS011;8260;51.422;6.786;2023-05-10T08:10:01;39.80;;;20.83;;
12493;SDS011;8260;51.422;6.786;2023-05-10T08:12:29;39.72;;;22.27;;
12493;SDS011;8260;51.422;6.786;2023-05-10T08:14:58;41.45;;;22.70;;
12493;SDS011;8260;51.422;6.786;2023-05-10T08:17:26;42.13;;;23.25;;
12493;SDS011;8260;51.422;6.786;2023-05-10T08:19:55;43.05;;;24.38;;
12493;SDS011;8260;51.422;6.786;2023-05-10T08:22:25;48.47;;;26.85;;
12493;SDS011;8260;51.422;6.786;2023-05-10T08:24:54;40.50;;;23.42;;
12493;SDS011;8260;51.422;6.786;2023-05-10T08:27:23;41.75;;;25.05;;
12493;SDS011;8260;51.422;6.786;2023-05-10T08:29:51;44.50;;;23.27;;
12493;SDS011;8260;51.422;6.786;2023-05-10T08:32:20;41.42;;;23.90;;
12493;SDS011;8260;51.422;6.786;2023-05-10T08:34:49;40.60;;;23.02;;
12493;SDS011;8260;51.422;6.786;2023-05-10T08:37:17;39.17;;;23.10;;
12493;SDS011;8260;51.422;6.786;2023-05-10T08:39:48;35.22;;;21.73;;
12493;SDS011;8260;51.422;6.786;2023-05-10T08:42:26;36.88;;;22.40;;
12493;SDS011;8260;51.422;6.786;2023-05-10T08:44:57;38.58;;;22.63;;
12493;SDS011;8260;51.422;6.786;2023-05-10T08:47:25;39.50;;;22.02;;
12493;SDS011;8260;51.422;6.786;2023-05-10T08:49:54;37.75;;;21.23;;
12493;SDS011;8260;51.422;6.786;2023-05-10T08:52:23;39.75;;;23.50;;
12493;SDS011;8260;51.422;6.786;2023-05-10T08:54:54;38.28;;;23.33;;
12493;SDS011;8260;51.422;6.786;2023-05-10T08:57:22;35.78;;;21.88;;
12493;SDS011;8260;51.422;6.786;2023-05-10T08:59:51;33.92;;;21.48;;
12493;SDS011;8260;51.422;6.786;2023-05-10T09:02:20;34.33;;;21.52;;
12493;SDS011;8260;51.422;6.786;2023-05-10T09:04:49;41.55;;;23.13;;
12493;SDS011;8260;51.422;6.786;2023-05-10T09:07:18;39.05;;;22.45;;
12493;SDS011;8260;51.422;6.786;2023-05-10T09:09:47;35.33;;;22.48;;
12493;SDS011;8260;51.422;6.786;2023-05-10T09:12:17;32.58;;;21.35;;
12493;SDS011;8260;51.422;6.786;2023-05-10T09:14:46;31.38;;;18.92;;
12493;SDS011;8260;51.422;6.786;2023-05-10T09:17:14;29.35;;;18.45;;
12493;SDS011;8260;51.422;6.786;2023-05-10T09:19:44;28.38;;;18.27;;
12493;SDS011;8260;51.422;6.786;2023-05-10T09:22:13;27.92;;;18.95;;
12493;SDS011;8260;51.422;6.786;2023-05-10T09:24:42;30.08;;;18.83;;
12493;SDS011;8260;51.422;6.786;2023-05-10T09:27:11;27.85;;;19.20;;
12493;SDS011;8260;51.422;6.786;2023-05-10T09:29:42;25.92;;;17.27;;
12493;SDS011;8260;51.422;6.786;2023-05-10T09:32:11;27.67;;;19.13;;
12493;SDS011;8260;51.422;6.786;2023-05-10T09:34:40;25.30;;;17.33;;
12493;SDS011;8260;51.422;6.786;2023-05-10T09:37:08;27.88;;;17.00;;
12493;SDS011;8260;51.422;6.786;2023-05-10T09:39:37;30.95;;;17.88;;
12493;SDS011;8260;51.422;6.786;2023-05-10T09:42:08;28.17;;;18.42;;
12493;SDS011;8260;51.422;6.786;2023-05-10T09:44:36;26.83;;;17.95;;
12493;SDS011;8260;51.422;6.786;2023-05-10T09:47:08;29.00;;;17.30;;
12493;SDS011;8260;51.422;6.786;2023-05-10T09:49:37;25.40;;;15.70;;
12493;SDS011;8260;51.422;6.786;2023-05-10T09:52:06;23.17;;;16.80;;
12493;SDS011;8260;51.422;6.786;2023-05-10T09:54:35;21.88;;;16.02;;
12493;SDS011;8260;51.422;6.786;2023-05-10T09:57:06;25.63;;;17.63;;
12493;SDS011;8260;51.422;6.786;2023-05-10T09:59:46;25.85;;;17.48;;
12493;SDS011;8260;51.422;6.786;2023-05-10T10:02:17;23.92;;;17.17;;
12493;SDS011;8260;51.422;6.786;2023-05-10T10:04:48;27.52;;;18.55;;
12493;SDS011;8260;51.422;6.786;2023-05-10T10:07:21;24.88;;;17.48;;
12493;SDS011;8260;51.422;6.786;2023-05-10T10:09:51;22.73;;;17.33;;
12493;SDS011;8260;51.422;6.786;2023-05-10T10:12:21;22.67;;;16.05;;
12493;SDS011;8260;51.422;6.786;2023-05-10T10:14:49;27.05;;;17.98;;
12493;SDS011;8260;51.422;6.786;2023-05-10T10:17:20;25.23;;;16.05;;
12493;SDS011;8260;51.422;6.786;2023-05-10T10:19:49;24.17;;;15.85;;
12493;SDS011;8260;51.422;6.786;2023-05-10T10:22:18;21.05;;;15.40;;
12493;SDS011;8260;51.422;6.786;2023-05-10T10:24:47;25.15;;;15.88;;
12493;SDS011;8260;51.422;6.786;2023-05-10T10:27:19;25.20;;;15.98;;
12493;SDS011;8260;51.422;6.786;2023-05-10T10:29:52;22.20;;;16.23;;
12493;SDS011;8260;51.422;6.786;2023-05-10T10:32:25;22.60;;;16.38;;
12493;SDS011;8260;51.422;6.786;2023-05-10T10:34:59;27.33;;;16.17;;
12493;SDS011;8260;51.422;6.786;2023-05-10T10:37:40;21.02;;;15.35;;
12493;SDS011;8260;51.422;6.786;2023-05-10T10:40:25;21.83;;;16.35;;
12493;SDS011;8260;51.422;6.786;2023-05-10T10:42:55;28.75;;;18.23;;
12493;SDS011;8260;51.422;6.786;2023-05-10T10:45:24;21.75;;;16.98;;
12493;SDS011;8260;51.422;6.786;2023-05-10T10:48:09;24.02;;;17.60;;
12493;SDS011;8260;51.422;6.786;2023-05-10T10:50:47;28.40;;;18.27;;
12493;SDS011;8260;51.422;6.786;2023-05-10T10:53:16;23.38;;;16.65;;
12493;SDS011;8260;51.422;6.786;2023-05-10T10:55:45;27.27;;;18.17;;
12493;SDS011;8260;51.422;6.786;2023-05-10T10:58:28;28.27;;;19.83;;
12493;SDS011;8260;51.422;6.786;2023-05-10T11:01:10;30.90;;;20.92;;
12493;SDS011;8260;51.422;6.786;2023-05-10T11:03:41;28.70;;;19.70;;
12493;SDS011;8260;51.422;6.786;2023-05-10T11:06:10;26.00;;;19.10;;
12493;SDS011;8260;51.422;6.786;2023-05-10T11:08:41;27.20;;;19.13;;
12493;SDS011;8260;51.422;6.786;2023-05-10T11:11:15;27.33;;;19.25;;
12493;SDS011;8260;51.422;6.786;2023-05-10T11:13:44;23.88;;;17.25;;
12493;SDS011;8260;51.422;6.786;2023-05-10T11:16:17;28.92;;;18.92;;
12493;SDS011;8260;51.422;6.786;2023-05-10T11:18:54;22.38;;;16.98;;
12493;SDS011;8260;51.422;6.786;2023-05-10T11:21:25;25.10;;;16.80;;
12493;SDS011;8260;51.422;6.786;2023-05-10T11:23:54;18.00;;;14.05;;
12493;SDS011;8260;51.422;6.786;2023-05-10T11:26:24;21.40;;;14.60;;
12493;SDS011;8260;51.422;6.786;2023-05-10T11:28:53;19.05;;;14.38;;
12493;SDS011;8260;51.422;6.786;2023-05-10T11:31:22;20.73;;;14.98;;
12493;SDS011;8260;51.422;6.786;2023-05-10T11:33:55;19.13;;;14.00;;
12493;SDS011;8260;51.422;6.786;2023-05-10T11:36:24;18.55;;;13.32;;
12493;SDS011;8260;51.422;6.786;2023-05-10T11:38:53;18.80;;;14.15;;
12493;SDS011;8260;51.422;6.786;2023-05-10T11:41:23;21.65;;;13.82;;
12493;SDS011;8260;51.422;6.786;2023-05-10T11:43:52;17.70;;;12.98;;
12493;SDS011;8260;51.422;6.786;2023-05-10T11:46:21;16.63;;;12.93;;
12493;SDS011;8260;51.422;6.786;2023-05-10T11:48:50;18.35;;;12.68;;
12493;SDS011;8260;51.422;6.786;2023-05-10T11:51:21;18.50;;;11.50;;
12493;SDS011;8260;51.422;6.786;2023-05-10T11:53:50;13.68;;;9.50;;
12493;SDS011;8260;51.422;6.786;2023-05-10T11:56:18;12.48;;;9.10;;
12493;SDS011;8260;51.422;6.786;2023-05-10T11:58:52;13.13;;;8.68;;
12493;SDS011;8260;51.422;6.786;2023-05-10T12:02:03;9.75;;;8.15;;
12493;SDS011;8260;51.422;6.786;2023-05-10T12:04:31;9.57;;;8.02;;
12493;SDS011;8260;51.422;6.786;2023-05-10T12:07:00;10.60;;;8.43;;
12493;SDS011;8260;51.422;6.786;2023-05-10T12:09:29;12.75;;;8.32;;
12493;SDS011;8260;51.422;6.786;2023-05-10T12:12:09;12.93;;;8.05;;
12493;SDS011;8260;51.422;6.786;2023-05-10T12:14:38;10.20;;;8.18;;
12493;SDS011;8260;51.422;6.786;2023-05-10T12:19:41;10.32;;;7.75;;
12493;SDS011;8260;51.422;6.786;2023-05-10T12:22:10;10.95;;;8.23;;
12493;SDS011;8260;51.422;6.786;2023-05-10T12:24:39;9.93;;;7.43;;
12493;SDS011;8260;51.422;6.786;2023-05-10T12:27:08;10.98;;;7.50;;
12493;SDS011;8260;51.422;6.786;2023-05-10T12:29:40;8.75;;;7.85;;
12493;SDS011;8260;51.422;6.786;2023-05-10T12:32:11;10.90;;;8.18;;
12493;SDS011;8260;51.422;6.786;2023-05-10T12:34:41;9.77;;;7.88;;
12493;SDS011;8260;51.422;6.786;2023-05-10T12:37:10;9.07;;;8.13;;
12493;SDS011;8260;51.422;6.786;2023-05-10T12:39:39;9.77;;;7.03;;
12493;SDS011;8260;51.422;6.786;2023-05-10T12:42:08;9.98;;;7.90;;
12493;SDS011;8260;51.422;6.786;2023-05-10T12:44:37;12.00;;;7.35;;
12493;SDS011;8260;51.422;6.786;2023-05-10T12:47:06;9.02;;;8.13;;
12493;SDS011;8260;51.422;6.786;2023-05-10T12:49:34;8.63;;;7.72;;
12493;SDS011;8260;51.422;6.786;2023-05-10T12:52:04;7.43;;;6.63;;
12493;SDS011;8260;51.422;6.786;2023-05-10T12:54:33;8.50;;;7.68;;
12493;SDS011;8260;51.422;6.786;2023-05-10T12:57:02;8.70;;;7.60;;
12493;SDS011;8260;51.422;6.786;2023-05-10T12:59:30;8.27;;;6.88;;
12493;SDS011;8260;51.422;6.786;2023-05-10T13:02:02;8.73;;;7.05;;
12493;SDS011;8260;51.422;6.786;2023-05-10T13:04:31;9.27;;;6.97;;
12493;SDS011;8260;51.422;6.786;2023-05-10T13:06:59;8.40;;;7.03;;
12493;SDS011;8260;51.422;6.786;2023-05-10T13:09:29;9.10;;;8.20;;
12493;SDS011;8260;51.422;6.786;2023-05-10T13:11:58;8.10;;;7.25;;
12493;SDS011;8260;51.422;6.786;2023-05-10T13:14:27;8.35;;;7.57;;
12493;SDS011;8260;51.422;6.786;2023-05-10T13:16:55;7.50;;;6.80;;
12493;SDS011;8260;51.422;6.786;2023-05-10T13:19:25;7.30;;;6.60;;
12493;SDS011;8260;51.422;6.786;2023-05-10T13:21:54;7.13;;;6.38;;
12493;SDS011;8260;51.422;6.786;2023-05-10T13:24:23;9.30;;;6.57;;
12493;SDS011;8260;51.422;6.786;2023-05-10T13:26:53;8.77;;;7.43;;
12493;SDS011;8260;51.422;6.786;2023-05-10T13:29:22;7.95;;;7.00;;
12493;SDS011;8260;51.422;6.786;2023-05-10T13:31:51;8.90;;;7.95;;
12493;SDS011;8260;51.422;6.786;2023-05-10T13:34:20;9.18;;;7.65;;
12493;SDS011;8260;51.422;6.786;2023-05-10T13:36:48;8.93;;;7.03;;
12493;SDS011;8260;51.422;6.786;2023-05-10T13:39:17;8.93;;;7.53;;
12493;SDS011;8260;51.422;6.786;2023-05-10T13:41:46;9.68;;;8.10;;
12493;SDS011;8260;51.422;6.786;2023-05-10T13:44:16;8.15;;;7.32;;
12493;SDS011;8260;51.422;6.786;2023-05-10T13:46:44;12.60;;;7.40;;
12493;SDS011;8260;51.422;6.786;2023-05-10T13:49:13;10.27;;;7.97;;
12493;SDS011;8260;51.422;6.786;2023-05-10T13:51:42;8.45;;;7.65;;
12493;SDS011;8260;51.422;6.786;2023-05-10T13:54:11;9.57;;;8.20;;
12493;SDS011;8260;51.422;6.786;2023-05-10T13:56:40;8.85;;;7.60;;
12493;SDS011;8260;51.422;6.786;2023-05-10T13:59:08;8.73;;;7.35;;
12493;SDS011;8260;51.422;6.786;2023-05-10T14:01:38;8.18;;;7.38;;
12493;SDS011;8260;51.422;6.786;2023-05-10T14:04:07;8.57;;;7.78;;
12493;SDS011;8260;51.422;6.786;2023-05-10T14:06:37;8.05;;;7.25;;
12493;SDS011;8260;51.422;6.786;2023-05-10T14:09:10;10.18;;;9.18;;
12493;SDS011;8260;51.422;6.786;2023-05-10T14:11:39;11.65;;;8.98;;
12493;SDS011;8260;51.422;6.786;2023-05-10T14:14:09;9.77;;;8.77;;
12493;SDS011;8260;51.422;6.786;2023-05-10T14:16:41;9.77;;;8.32;;
12493;SDS011;8260;51.422;6.786;2023-05-10T14:19:10;11.32;;;8.73;;
12493;SDS011;8260;51.422;6.786;2023-05-10T14:21:39;10.40;;;8.60;;
12493;SDS011;8260;51.422;6.786;2023-05-10T14:24:07;9.63;;;7.97;;
12493;SDS011;8260;51.422;6.786;2023-05-10T14:26:36;8.88;;;7.20;;
12493;SDS011;8260;51.422;6.786;2023-05-10T14:29:05;8.88;;;7.30;;
12493;SDS011;8260;51.422;6.786;2023-05-10T14:31:36;8.90;;;7.55;;
12493;SDS011;8260;51.422;6.786;2023-05-10T14:34:07;9.05;;;7.80;;
12493;SDS011;8260;51.422;6.786;2023-05-10T14:36:35;10.57;;;8.05;;
12493;SDS011;8260;51.422;6.786;2023-05-10T14:39:04;8.60;;;7.28;;
12493;SDS011;8260;51.422;6.786;2023-05-10T14:41:32;7.30;;;6.55;;
12493;SDS011;8260;51.422;6.786;2023-05-10T14:44:01;9.75;;;7.90;;
12493;SDS011;8260;51.422;6.786;2023-05-10T14:46:30;10.48;;;9.40;;
12493;SDS011;8260;51.422;6.786;2023-05-10T14:49:00;9.27;;;8.38;;
12493;SDS011;8260;51.422;6.786;2023-05-10T14:51:31;11.63;;;10.00;;
12493;SDS011;8260;51.422;6.786;2023-05-10T14:53:59;13.07;;;11.68;;
12493;SDS011;8260;51.422;6.786;2023-05-10T14:56:28;13.48;;;11.93;;
12493;SDS011;8260;51.422;6.786;2023-05-10T14:58:58;14.15;;;12.65;;